Time;durP1;ratioP1;P1;durP2;ratioP2;P2;SDS_P1;SDS_P2;PMS_P1;PMS_P2;Temp;Humidity;BMP_temperature;BMP_pressure;BME280_temperature;BME280_humidity;BME280_pressure;Samples;Min_cycle;Max_cycle;Signal;HPM_P1;HPM_P2
2021/10/28 00:19:03;;;;;;;12.90;10.30;;;;;;;10.28;70.15;100348.64;475261;1190;142010;-66
2021/10/28 00:29:10;;;;;;;15.50;10.80;;;;;;;10.27;70.25;100352.87;464256;1177;141956;-66
2021/10/28 00:39:17;;;;;;;12.60;9.70;;;;;;;10.24;70.41;100349.69;466405;1190;141755;-66
2021/10/28 00:49:23;;;;;;;15.80;11.00;;;;;;;10.21;70.53;100344.45;477839;1190;148956;-66
2021/10/28 00:59:29;;;;;;;13.40;10.80;;;;;;;10.23;70.65;100337.17;476941;1190;142421;-66
2021/10/28 01:09:35;;;;;;;13.40;11.30;;;;;;;10.25;70.70;100328.10;477755;1190;143445;-66
2021/10/28 01:19:41;;;;;;;13.30;10.80;;;;;;;10.22;70.86;100323.88;477621;1190;145379;-66
2021/10/28 01:29:47;;;;;;;10.90;9.70;;;;;;;10.28;70.88;100318.89;476872;1190;141773;-66
2021/10/28 01:39:53;;;;;;;10.40;9.30;;;;;;;10.31;70.91;100312.43;477738;1190;143818;-66
2021/10/28 01:49:59;;;;;;;15.50;12.00;;;;;;;10.32;71.07;100311.69;477705;1189;141262;-67
2021/10/28 02:00:12;;;;;;;11.20;10.10;;;;;;;10.37;71.12;100310.36;477041;1190;141732;-66
2021/10/28 02:10:20;;;;;;;14.10;10.10;;;;;;;10.32;71.14;100308.02;472249;1190;142378;-67
2021/10/28 02:20:26;;;;;;;13.10;11.80;;;;;;;10.31;71.19;100310.31;468781;1190;143969;-65
2021/10/28 02:30:34;;;;;;;13.00;11.70;;;;;;;10.27;71.36;100308.26;466513;1190;144387;-66
2021/10/28 02:40:40;;;;;;;14.50;11.70;;;;;;;10.15;71.57;100301.90;477737;1189;142317;-65
2021/10/28 02:50:46;;;;;;;17.60;13.00;;;;;;;10.10;71.66;100310.69;471989;1190;144568;-65
2021/10/28 03:00:52;;;;;;;16.60;14.00;;;;;;;10.08;71.87;100316.02;470889;1190;141715;-66
2021/10/28 03:10:59;;;;;;;19.10;14.70;;;;;;;10.01;71.98;100323.54;472229;1190;142462;-66
2021/10/28 03:31:29;;;;;;;17.70;14.30;;;;;;;9.86;72.23;100331.97;475045;1190;142190;-66
2021/10/28 03:42:05;;;;;;;19.00;14.40;;;;;;;9.83;72.40;100343.48;476902;1182;142863;-66
2021/10/28 04:34:00;;;;;;;19.20;16.40;;;;;;;9.69;72.50;100371.26;477756;1190;142484;-67
2021/10/28 04:44:09;;;;;;;25.20;18.00;;;;;;;9.68;72.56;100368.73;466869;1190;141728;-64
2021/10/28 04:54:15;;;;;;;22.70;18.20;;;;;;;9.59;72.44;100369.83;476900;1190;141810;-66
2021/10/28 05:04:22;;;;;;;22.60;17.70;;;;;;;9.52;72.46;100371.55;477696;1190;141551;-66
2021/10/28 05:14:27;;;;;;;29.00;20.40;;;;;;;9.50;72.56;100380.38;476843;1190;141747;-66
2021/10/28 05:24:33;;;;;;;26.50;20.00;;;;;;;9.45;72.48;100387.43;477843;1190;141714;-65
2021/10/28 05:34:40;;;;;;;23.60;18.30;;;;;;;9.42;72.38;100399.64;477745;1188;141388;-65
2021/10/28 05:44:47;;;;;;;28.20;22.70;;;;;;;9.35;72.29;100401.35;476941;1190;142447;-65
2021/10/28 05:54:52;;;;;;;24.00;20.10;;;;;;;9.26;72.10;100415.20;477094;1191;143990;-66
2021/10/28 06:04:58;;;;;;;26.10;21.30;;;;;;;9.21;72.15;100422.58;477760;1189;141435;-66
2021/10/28 06:15:06;;;;;;;26.30;21.00;;;;;;;9.21;72.13;100420.64;477012;1190;142834;-66
2021/10/28 06:25:11;;;;;;;;;;;;;;;9.22;72.07;100422.86;477750;1190;142176;-66
2021/10/28 06:35:17;;;;;;;30.90;22.20;;;;;;;9.23;72.17;100426.48;467008;1190;127566;-62
2021/10/28 06:45:24;;;;;;;31.80;23.00;;;;;;;9.23;71.91;100428.79;475191;1190;141153;-72
2021/10/28 06:55:40;;;;;;;31.20;22.50;;;;;;;9.35;71.80;100436.09;477743;1190;142811;-73
2021/10/28 07:05:46;;;;;;;28.30;21.60;;;;;;;9.59;71.44;100441.64;477003;1190;141293;-67
2021/10/28 07:15:55;;;;;;;29.80;21.50;;;;;;;9.87;71.06;100438.27;465296;1190;142266;-64
2021/10/28 07:26:20;;;;;;;30.20;20.70;;;;;;;10.19;70.71;100440.75;463570;1190;141323;-64
2021/10/28 08:18:29;;;;;;;20.00;16.80;;;;;;;20.22;59.02;100423.45;460591;1191;141342;-61
2021/10/28 08:28:42;;;;;;;15.20;13.70;;;;;;;22.66;54.32;100412.65;459000;1189;10001220;-62
2021/10/28 08:38:49;;;;;;;14.10;12.70;;;;;;;23.57;50.97;100406.77;461121;1174;141601;-67
2021/10/28 08:48:59;;;;;;;14.30;11.60;;;;;;;25.08;48.22;100398.39;475956;1189;141964;-69
2021/10/28 09:30:51;;;;;;;8.30;7.50;;;;;;;24.26;40.27;100373.20;461144;1190;186842;-69
2021/10/28 09:51:32;;;;;;;8.70;7.90;;;;;;;19.67;44.53;100372.31;460384;1190;141442;-61
2021/10/28 10:01:44;;;;;;;11.00;9.90;;;;;;;18.68;46.19;100370.30;461743;1190;141043;-65
2021/10/28 10:11:51;;;;;;;12.60;9.70;;;;;;;17.82;47.72;100365.23;461072;1190;141202;-66
2021/10/28 10:22:01;;;;;;;12.60;11.00;;;;;;;17.32;48.68;100354.33;461958;1190;140266;-66
2021/10/28 13:52:32;;;;;;;11.90;8.80;;;;;;;14.73;54.56;100219.55;465913;1190;141086;-65
2021/10/28 15:36:39;;;;;;;29.20;20.90;;;;;;;12.40;59.42;100199.46;461849;1190;141729;-75
2021/10/28 15:57:21;;;;;;;25.90;20.70;;;;;;;11.61;61.09;100188.56;473310;1190;141385;-75
2021/10/28 16:28:16;;;;;;;33.70;24.80;;;;;;;10.86;62.83;100185.95;462617;1190;141576;-74
2021/10/28 16:38:23;;;;;;;31.00;24.50;;;;;;;10.64;63.50;100184.21;468076;1190;142520;-75
2021/10/28 16:48:30;;;;;;;28.80;23.10;;;;;;;10.44;63.99;100186.12;464805;1190;141701;-73
2021/10/28 16:58:36;;;;;;;40.30;28.50;;;;;;;10.23;64.40;100185.63;466535;1190;141715;-72
2021/10/28 17:08:42;;;;;;;38.50;27.30;;;;;;;9.98;65.11;100186.73;461778;1190;142207;-73
2021/10/28 17:18:48;;;;;;;43.60;29.90;;;;;;;9.74;65.60;100192.52;462498;1190;141521;-72
2021/10/28 17:28:59;;;;;;;40.80;28.70;;;;;;;9.56;66.32;100198.83;470028;1190;141615;-73
2021/10/28 17:39:06;;;;;;;35.40;28.30;;;;;;;9.42;66.90;100200.57;470112;1189;143078;-74
2021/10/28 17:49:13;;;;;;;38.80;29.00;;;;;;;9.31;67.43;100196.06;474253;1190;143574;-65
2021/10/28 17:59:19;;;;;;;35.90;29.00;;;;;;;9.15;67.78;100195.23;468323;1190;141301;-63
2021/10/28 18:09:27;;;;;;;41.30;31.90;;;;;;;8.97;68.31;100187.52;462295;1190;141602;-62
2021/10/28 18:19:33;;;;;;;44.40;31.80;;;;;;;8.82;68.76;100177.59;462990;1190;140801;-66
2021/10/28 18:29:41;;;;;;;41.50;32.40;;;;;;;8.70;69.14;100168.20;462551;1190;140959;-73
2021/10/28 18:39:50;;;;;;;51.60;36.00;;;;;;;8.62;69.82;100166.99;473514;1190;141576;-73
2021/10/28 18:49:58;;;;;;;46.90;33.90;;;;;;;8.55;70.00;100163.48;466964;1190;141076;-73
2021/10/28 19:00:07;;;;;;;43.60;34.30;;;;;;;8.48;70.59;100156.79;461296;1190;142161;-70
2021/10/28 19:10:14;;;;;;;45.80;33.60;;;;;;;8.41;71.00;100159.57;462945;1190;142668;-71
2021/10/28 19:20:21;;;;;;;50.30;36.20;;;;;;;8.29;71.28;100162.89;464972;1190;142192;-68
2021/10/28 19:30:30;;;;;;;56.50;40.40;;;;;;;8.15;71.63;100158.78;466476;1190;140819;-68
2021/10/28 19:51:01;;;;;;;41.10;33.90;;;;;;;7.93;72.01;100146.01;465571;1190;140583;-68
2021/10/28 20:01:18;;;;;;;39.80;32.20;;;;;;;7.76;72.38;100143.61;464313;1190;196270;-69
2021/10/28 20:21:54;;;;;;;50.60;35.90;;;;;;;7.47;72.96;100147.59;462229;1190;144945;-68
2021/10/28 20:32:01;;;;;;;41.20;29.40;;;;;;;7.35;73.27;100141.13;466830;1190;141272;-67
2021/10/28 20:42:10;;;;;;;44.70;31.20;;;;;;;7.23;73.51;100140.73;431544;1189;20002784;-70
2021/10/28 20:52:18;;;;;;;37.00;30.30;;;;;;;7.18;73.73;100137.14;470215;1188;141720;-67
2021/10/28 21:02:25;;;;;;;44.10;31.40;;;;;;;7.13;73.97;100125.84;471380;1190;140804;-68
2021/10/28 21:12:33;;;;;;;39.70;31.10;;;;;;;7.06;73.92;100122.96;471914;1190;209400;-69
2021/10/28 21:22:40;;;;;;;40.30;29.80;;;;;;;7.00;74.11;100119.20;477668;1190;141140;-68
2021/10/28 21:32:46;;;;;;;46.10;35.50;;;;;;;6.90;74.15;100111.10;476985;1189;143564;-69
2021/10/28 21:42:52;;;;;;;43.70;32.10;;;;;;;6.83;74.50;100110.84;477821;1189;141658;-69
2021/10/28 21:53:02;;;;;;;38.00;29.90;;;;;;;6.76;74.68;100109.58;477905;1189;142107;-70
2021/10/28 22:03:31;;;;;;;37.30;28.00;;;;;;;6.70;74.91;100104.55;467858;1189;141425;-68
2021/10/28 22:24:20;;;;;;;37.30;29.50;;;;;;;6.49;75.22;100091.65;463175;1184;142389;-68
2021/10/28 22:34:26;;;;;;;38.10;31.00;;;;;;;6.34;75.50;100082.13;464753;1190;141495;-68
2021/10/28 22:44:34;;;;;;;34.80;27.40;;;;;;;6.22;75.72;100078.05;463342;1189;141837;-67
2021/10/28 22:54:41;;;;;;;37.40;27.70;;;;;;;6.11;75.97;100070.64;469361;1190;141655;-67
2021/10/28 23:05:04;;;;;;;42.60;29.20;;;;;;;6.05;76.16;100062.90;461320;1190;141885;-65
2021/10/28 23:25:36;;;;;;;34.90;26.60;;;;;;;5.79;76.49;100047.83;477832;1189;140627;-66
2021/10/28 23:35:43;;;;;;;39.10;28.70;;;;;;;5.66;76.83;100042.20;476961;1190;142265;-66
2021/10/28 23:45:50;;;;;;;40.20;31.00;;;;;;;5.58;76.89;100038.50;470426;1190;140486;-66
2021/10/28 23:55:57;;;;;;;37.80;29.40;;;;;;;5.49;77.05;100044.56;469360;1190;141647;-66
